Island Escape — C6SK4 — position and weather

sailwx.info

Track history (hours):
 
Tides and Currents Weather Stations Pressure Air Temp Water Temp Dewpoint Dewpoint Depression Visibility Wind Speed Wind Dir Waves Ship Positions

Island Escape

Operator: V Ships Leisure SAM

Last reported at 2017-Apr-18 09:24 UTC. Time now 2017-Jul-22 04:43 UTC.
Position N 34°41' E 033°12'.
Warning: this ship's position is months out of date.

; draft 7.2 m.

Type: Passenger vessel. MMSI: 311368000.

Date/timePositionNaut miles runAvg speedWind from/ knotsBaromVisibWave heightAir tempDewpointWater temp
2017-Apr-18 09:24N 34°41' E 033°12'0 1.1
2017-Apr-18 08:58N 34°41' E 033°11'7 9.0
2017-Apr-18 08:11N 34°35' E 033°07'2 6.6
2017-Apr-18 07:53N 34°33' E 033°06'4 7.3
2017-Apr-18 07:17N 34°29' E 033°04'12 8.4
2017-Apr-18 05:49N 34°17' E 033°02'49 8.9
2017-Apr-18 00:14N 33°28' E 032°55'2 9.1
2017-Apr-18 00:01N 33°26' E 032°54'4 8.9
2017-Apr-17 23:30N 33°21' E 032°54'25 8.3
2017-Apr-17 20:32N 32°57' E 032°50'0 7.3
2017-Apr-17 20:28N 32°56' E 032°49'14 8.0
2017-Apr-17 18:42N 32°42' E 032°48'2 7.5
2017-Apr-17 18:23N 32°40' E 032°47'6 7.7
2017-Apr-17 17:34N 32°34' E 032°46'0 7.7
2017-Apr-17 17:30N 32°33' E 032°46'4 7.8
2017-Apr-17 17:00N 32°30' E 032°45'9 7.8
2017-Apr-17 15:51N 32°21' E 032°44'3 8.1
2017-Apr-17 15:30N 32°18' E 032°44'  
2017-Apr-12 03:20N 31°21' E 032°17'0 0.0
2017-Apr-12 02:56N 31°21' E 032°17'0 0.0
2017-Apr-11 20:17N 31°21' E 032°17'0 0.0
2017-Apr-11 18:59N 31°21' E 032°17'0 0.0
2017-Apr-11 16:02N 31°21' E 032°17'0 0.5
2017-Apr-11 15:59N 31°21' E 032°17'0 0.0
2017-Apr-11 02:44N 31°21' E 032°17'  
Track history (hours):
 
Tides and Currents Weather Stations Pressure Air Temp Water Temp Dewpoint Dewpoint Depression Visibility Wind Speed Wind Dir Waves Ship Positions

Island Escape

Operator: V Ships Leisure SAM

Last reported at 2017-Apr-18 09:24 UTC. Time now 2017-Jul-22 04:43 UTC.
Position N 34°41' E 033°12'.
Warning: this ship's position is months out of date.

; draft 7.2 m.

Type: Passenger vessel. MMSI: 311368000.

Date/timePositionNaut miles runAvg speedWind from/ knotsBaromVisibWave heightAir tempDewpointWater temp
2017-Apr-18 09:24N 34°41' E 033°12'0 1.1
2017-Apr-18 08:58N 34°41' E 033°11'7 9.0
2017-Apr-18 08:11N 34°35' E 033°07'2 6.6
2017-Apr-18 07:53N 34°33' E 033°06'4 7.3
2017-Apr-18 07:17N 34°29' E 033°04'12 8.4
2017-Apr-18 05:49N 34°17' E 033°02'49 8.9
2017-Apr-18 00:14N 33°28' E 032°55'2 9.1
2017-Apr-18 00:01N 33°26' E 032°54'4 8.9
2017-Apr-17 23:30N 33°21' E 032°54'25 8.3
2017-Apr-17 20:32N 32°57' E 032°50'0 7.3
2017-Apr-17 20:28N 32°56' E 032°49'14 8.0
2017-Apr-17 18:42N 32°42' E 032°48'2 7.5
2017-Apr-17 18:23N 32°40' E 032°47'6 7.7
2017-Apr-17 17:34N 32°34' E 032°46'0 7.7
2017-Apr-17 17:30N 32°33' E 032°46'4 7.8
2017-Apr-17 17:00N 32°30' E 032°45'9 7.8
2017-Apr-17 15:51N 32°21' E 032°44'3 8.1
2017-Apr-17 15:30N 32°18' E 032°44'  
2017-Apr-12 03:20N 31°21' E 032°17'0 0.0
2017-Apr-12 02:56N 31°21' E 032°17'0 0.0
2017-Apr-11 20:17N 31°21' E 032°17'0 0.0
2017-Apr-11 18:59N 31°21' E 032°17'0 0.0
2017-Apr-11 16:02N 31°21' E 032°17'0 0.5
2017-Apr-11 15:59N 31°21' E 032°17'0 0.0
2017-Apr-11 02:44N 31°21' E 032°17'  

Dump ship's entire track history